Bracey, VA (23919)

11:02 PM EST on December 22, 2014 (GMT -0500)
MATTHEWS MANORWOOD @ LAKE GASTON | Change Station
CLOSE
Current Station
Personal Weather Station
Location: Macon, NC
Elevation: 268 ft
Nearby Weather Stations

Elev 268 ft 36.53 °N, 78.06 °W | Updated 11 minutes ago

Overcast
Overcast
37.2 °F
Feels Like 37 °F
N
0.0
Wind Variable Wind from WNW
Gusts 1.0 mph

Today
High -- | Low -- °F
--% Chance of Precip.
Yesterday
High -- | Low -- °F
Precip. -- in
7:21 AM 5:00 PM
New Moon, 2% visible
Pressure 30.13 in
Visibility 2.0 miles
Clouds Overcast 200 ft
Windchill 37 °F
Dew Point 37 °F
Humidity 98%
Rainfall 0.37 in
Snow Depth Not available.
UV 0 out of 12
Pollen .30 out of 12
Air Quality Not available.
Flu Activity Not available.
METAR KAVC 230356Z AUTO 32003KT 2SM OVC002 02/01 A3013 RMK AO2 T00160013

More Conditions Fewer Conditions

Pressure 30.13 in
Visibility 2.0 miles
Clouds Overcast 200 ft
Windchill 37 °F
Dew Point 37 °F
Humidity 98%
Rainfall 0.37 in
Snow Depth Not available.
UV 0 out of 12
Pollen .30 out of 12
Air Quality Not available.
Flu Activity Not available.
METAR KAVC 230356Z AUTO 32003KT 2SM OVC002 02/01 A3013 RMK AO2 T00160013

More Conditions Fewer Conditions

10-Day Weather Forecast

Almanac

Astronomy

Dec. 22, 2014 Rise Set
Actual Time
Civil Twilight
Nautical Twilight
Astronomical Twilight
Moon
Length of Visible Light
Length of Day
Tomorrow will be .
, % of the Moon is Illuminated

Today's Extremes

State Highs State Lows

Community

WunderPhotos

Upload Photos

1,779,775 photos uploaded!

WunderBlogs® & News

Nearby

Air Quality

  Air Quality AQ Index Pollutant
Not available.

Snow Depth

Station Depth Elevation

Earthquake Activity

City Distance Mag. Time & Date
Minimum magnitude displayed is 2.5.

Coastal Water Temperatures

Place Temperature

Nearby Weather Stations